sensor_id;sensor_type;location;lat;lon;timestamp;temperature;humidity
27940;DHT22;15275;51.716;14.324;2022-07-10T00:01:09;18.40;76.70
27940;DHT22;15275;51.716;14.324;2022-07-10T00:03:35;18.40;76.70
27940;DHT22;15275;51.716;14.324;2022-07-10T00:06:01;18.30;76.70
27940;DHT22;15275;51.716;14.324;2022-07-10T00:08:27;18.30;76.60
27940;DHT22;15275;51.716;14.324;2022-07-10T00:10:53;18.20;76.70
27940;DHT22;15275;51.716;14.324;2022-07-10T00:13:19;18.20;76.60
27940;DHT22;15275;51.716;14.324;2022-07-10T00:15:44;18.20;76.60
27940;DHT22;15275;51.716;14.324;2022-07-10T00:18:10;18.10;76.60
27940;DHT22;15275;51.716;14.324;2022-07-10T00:20:36;18.10;76.50
27940;DHT22;15275;51.716;14.324;2022-07-10T00:23:02;18.10;76.50
27940;DHT22;15275;51.716;14.324;2022-07-10T00:25:28;18.10;76.60
27940;DHT22;15275;51.716;14.324;2022-07-10T00:27:58;18.00;76.50
27940;DHT22;15275;51.716;14.324;2022-07-10T00:30:25;18.00;76.20
27940;DHT22;15275;51.716;14.324;2022-07-10T00:32:51;18.00;76.60
27940;DHT22;15275;51.716;14.324;2022-07-10T00:35:17;18.00;76.60
27940;DHT22;15275;51.716;14.324;2022-07-10T00:37:43;18.00;76.60
27940;DHT22;15275;51.716;14.324;2022-07-10T00:40:09;18.00;76.60
27940;DHT22;15275;51.716;14.324;2022-07-10T00:42:35;18.00;76.70
27940;DHT22;15275;51.716;14.324;2022-07-10T00:45:01;18.00;76.60
27940;DHT22;15275;51.716;14.324;2022-07-10T00:47:27;18.00;76.60
27940;DHT22;15275;51.716;14.324;2022-07-10T00:49:53;18.00;76.50
27940;DHT22;15275;51.716;14.324;2022-07-10T00:52:19;18.00;76.60
27940;DHT22;15275;51.716;14.324;2022-07-10T00:54:47;17.90;76.50
27940;DHT22;15275;51.716;14.324;2022-07-10T00:57:16;17.90;76.40
27940;DHT22;15275;51.716;14.324;2022-07-10T00:59:44;17.90;76.50
27940;DHT22;15275;51.716;14.324;2022-07-10T01:02:11;17.90;76.40
27940;DHT22;15275;51.716;14.324;2022-07-10T01:04:38;17.90;76.40
27940;DHT22;15275;51.716;14.324;2022-07-10T01:07:04;17.90;76.40
27940;DHT22;15275;51.716;14.324;2022-07-10T01:09:30;17.90;76.30
27940;DHT22;15275;51.716;14.324;2022-07-10T01:12:00;17.90;76.30
27940;DHT22;15275;51.716;14.324;2022-07-10T01:14:28;17.90;76.20
27940;DHT22;15275;51.716;14.324;2022-07-10T01:16:56;17.90;76.30
27940;DHT22;15275;51.716;14.324;2022-07-10T01:19:23;17.90;76.40
27940;DHT22;15275;51.716;14.324;2022-07-10T01:21:48;17.90;76.40
27940;DHT22;15275;51.716;14.324;2022-07-10T01:24:14;17.90;76.30
27940;DHT22;15275;51.716;14.324;2022-07-10T01:26:40;17.90;76.40
27940;DHT22;15275;51.716;14.324;2022-07-10T01:29:10;17.80;76.30
27940;DHT22;15275;51.716;14.324;2022-07-10T01:31:39;17.80;76.30
27940;DHT22;15275;51.716;14.324;2022-07-10T01:34:07;17.80;76.30
27940;DHT22;15275;51.716;14.324;2022-07-10T01:36:35;17.80;76.10
27940;DHT22;15275;51.716;14.324;2022-07-10T01:39:02;17.80;76.10
27940;DHT22;15275;51.716;14.324;2022-07-10T01:41:28;17.70;76.10
27940;DHT22;15275;51.716;14.324;2022-07-10T01:43:54;17.70;76.20
27940;DHT22;15275;51.716;14.324;2022-07-10T01:46:20;17.70;76.20
27940;DHT22;15275;51.716;14.324;2022-07-10T01:48:46;17.70;76.30
27940;DHT22;15275;51.716;14.324;2022-07-10T01:51:13;17.70;76.30
27940;DHT22;15275;51.716;14.324;2022-07-10T01:53:39;17.70;76.30
27940;DHT22;15275;51.716;14.324;2022-07-10T01:56:08;17.70;76.20
27940;DHT22;15275;51.716;14.324;2022-07-10T01:58:35;17.70;76.10
27940;DHT22;15275;51.716;14.324;2022-07-10T02:01:02;17.60;76.20
27940;DHT22;15275;51.716;14.324;2022-07-10T02:03:29;17.60;76.10
27940;DHT22;15275;51.716;14.324;2022-07-10T02:06:14;17.60;76.10
27940;DHT22;15275;51.716;14.324;2022-07-10T02:08:40;17.60;76.30
27940;DHT22;15275;51.716;14.324;2022-07-10T02:11:06;17.50;76.20
27940;DHT22;15275;51.716;14.324;2022-07-10T02:13:32;17.60;76.20
27940;DHT22;15275;51.716;14.324;2022-07-10T02:15:58;17.50;76.10
27940;DHT22;15275;51.716;14.324;2022-07-10T02:18:24;17.50;76.20
27940;DHT22;15275;51.716;14.324;2022-07-10T02:20:51;17.50;76.20
27940;DHT22;15275;51.716;14.324;2022-07-10T02:23:18;17.50;76.20
27940;DHT22;15275;51.716;14.324;2022-07-10T02:25:44;17.50;76.30
27940;DHT22;15275;51.716;14.324;2022-07-10T02:28:10;17.50;76.40
27940;DHT22;15275;51.716;14.324;2022-07-10T02:30:37;17.50;76.40
27940;DHT22;15275;51.716;14.324;2022-07-10T02:33:03;17.50;76.30
27940;DHT22;15275;51.716;14.324;2022-07-10T02:35:29;17.50;76.30
27940;DHT22;15275;51.716;14.324;2022-07-10T02:37:55;17.40;76.30
27940;DHT22;15275;51.716;14.324;2022-07-10T02:40:21;17.40;76.20
27940;DHT22;15275;51.716;14.324;2022-07-10T02:42:47;17.40;76.30
27940;DHT22;15275;51.716;14.324;2022-07-10T02:45:13;17.40;76.30
27940;DHT22;15275;51.716;14.324;2022-07-10T02:47:39;17.40;76.30
27940;DHT22;15275;51.716;14.324;2022-07-10T02:50:06;17.40;76.30
27940;DHT22;15275;51.716;14.324;2022-07-10T02:52:33;17.30;76.30
27940;DHT22;15275;51.716;14.324;2022-07-10T02:54:59;17.30;76.30
27940;DHT22;15275;51.716;14.324;2022-07-10T02:57:25;17.30;76.30
27940;DHT22;15275;51.716;14.324;2022-07-10T02:59:51;17.30;76.30
27940;DHT22;15275;51.716;14.324;2022-07-10T03:02:17;17.30;76.50
27940;DHT22;15275;51.716;14.324;2022-07-10T03:04:43;17.30;76.40
27940;DHT22;15275;51.716;14.324;2022-07-10T03:07:09;17.30;76.60
27940;DHT22;15275;51.716;14.324;2022-07-10T03:09:34;17.30;76.50
27940;DHT22;15275;51.716;14.324;2022-07-10T03:12:00;17.30;76.50
27940;DHT22;15275;51.716;14.324;2022-07-10T03:14:26;17.30;76.40
27940;DHT22;15275;51.716;14.324;2022-07-10T03:16:52;17.30;76.30
27940;DHT22;15275;51.716;14.324;2022-07-10T03:19:18;17.30;76.30
27940;DHT22;15275;51.716;14.324;2022-07-10T03:21:44;17.20;76.30
27940;DHT22;15275;51.716;14.324;2022-07-10T03:24:11;17.20;76.30
27940;DHT22;15275;51.716;14.324;2022-07-10T03:26:37;17.20;76.30
27940;DHT22;15275;51.716;14.324;2022-07-10T03:29:03;17.20;76.30
27940;DHT22;15275;51.716;14.324;2022-07-10T03:31:29;17.20;76.40
27940;DHT22;15275;51.716;14.324;2022-07-10T03:33:55;17.20;76.40
27940;DHT22;15275;51.716;14.324;2022-07-10T03:36:21;17.20;76.30
27940;DHT22;15275;51.716;14.324;2022-07-10T03:38:46;17.20;76.30
27940;DHT22;15275;51.716;14.324;2022-07-10T03:41:15;17.10;76.30
27940;DHT22;15275;51.716;14.324;2022-07-10T03:43:41;17.10;76.00
27940;DHT22;15275;51.716;14.324;2022-07-10T03:46:07;17.10;76.20
27940;DHT22;15275;51.716;14.324;2022-07-10T03:48:33;17.10;76.10
27940;DHT22;15275;51.716;14.324;2022-07-10T03:50:59;17.10;76.30
27940;DHT22;15275;51.716;14.324;2022-07-10T03:53:26;17.10;76.20
27940;DHT22;15275;51.716;14.324;2022-07-10T03:55:52;17.10;76.10
27940;DHT22;15275;51.716;14.324;2022-07-10T03:58:19;17.10;76.20
27940;DHT22;15275;51.716;14.324;2022-07-10T04:00:45;17.10;76.20
27940;DHT22;15275;51.716;14.324;2022-07-10T04:03:11;17.10;76.10
27940;DHT22;15275;51.716;14.324;2022-07-10T04:05:39;17.10;76.20
27940;DHT22;15275;51.716;14.324;2022-07-10T04:08:05;17.10;76.10
27940;DHT22;15275;51.716;14.324;2022-07-10T04:10:32;17.10;76.00
27940;DHT22;15275;51.716;14.324;2022-07-10T04:12:58;17.10;76.10
27940;DHT22;15275;51.716;14.324;2022-07-10T04:15:24;17.20;76.10
27940;DHT22;15275;51.716;14.324;2022-07-10T04:17:51;17.10;75.90
27940;DHT22;15275;51.716;14.324;2022-07-10T04:20:18;17.20;76.10
27940;DHT22;15275;51.716;14.324;2022-07-10T04:22:44;17.20;76.00
27940;DHT22;15275;51.716;14.324;2022-07-10T04:25:11;17.20;76.00
27940;DHT22;15275;51.716;14.324;2022-07-10T04:27:37;17.20;76.10
27940;DHT22;15275;51.716;14.324;2022-07-10T04:30:04;17.20;75.90
27940;DHT22;15275;51.716;14.324;2022-07-10T04:32:30;17.20;75.70
27940;DHT22;15275;51.716;14.324;2022-07-10T04:34:57;17.20;75.80
27940;DHT22;15275;51.716;14.324;2022-07-10T04:37:23;17.20;75.80
27940;DHT22;15275;51.716;14.324;2022-07-10T04:39:49;17.20;75.90
27940;DHT22;15275;51.716;14.324;2022-07-10T04:42:15;17.30;75.80
27940;DHT22;15275;51.716;14.324;2022-07-10T04:44:42;17.30;75.90
27940;DHT22;15275;51.716;14.324;2022-07-10T04:47:07;17.30;75.20
27940;DHT22;15275;51.716;14.324;2022-07-10T04:49:34;17.30;75.20
27940;DHT22;15275;51.716;14.324;2022-07-10T04:52:01;17.30;75.30
27940;DHT22;15275;51.716;14.324;2022-07-10T04:54:27;17.30;75.50
27940;DHT22;15275;51.716;14.324;2022-07-10T04:56:52;17.30;75.50
27940;DHT22;15275;51.716;14.324;2022-07-10T04:59:18;17.30;75.40
27940;DHT22;15275;51.716;14.324;2022-07-10T05:01:47;17.30;75.40
27940;DHT22;15275;51.716;14.324;2022-07-10T05:04:13;17.30;75.60
27940;DHT22;15275;51.716;14.324;2022-07-10T05:06:39;17.40;75.70
27940;DHT22;15275;51.716;14.324;2022-07-10T05:09:05;17.40;75.70
27940;DHT22;15275;51.716;14.324;2022-07-10T05:11:31;17.50;75.40
27940;DHT22;15275;51.716;14.324;2022-07-10T05:13:57;17.50;75.50
27940;DHT22;15275;51.716;14.324;2022-07-10T05:16:23;17.60;75.50
27940;DHT22;15275;51.716;14.324;2022-07-10T05:18:49;17.60;75.50
27940;DHT22;15275;51.716;14.324;2022-07-10T05:21:15;17.70;74.90
27940;DHT22;15275;51.716;14.324;2022-07-10T05:23:41;17.70;74.50
27940;DHT22;15275;51.716;14.324;2022-07-10T05:26:08;17.70;75.30
27940;DHT22;15275;51.716;14.324;2022-07-10T05:28:37;17.80;75.70
27940;DHT22;15275;51.716;14.324;2022-07-10T05:31:03;18.00;75.10
27940;DHT22;15275;51.716;14.324;2022-07-10T05:33:29;18.10;74.80
27940;DHT22;15275;51.716;14.324;2022-07-10T05:35:58;18.20;74.30
27940;DHT22;15275;51.716;14.324;2022-07-10T05:38:24;18.30;74.40
27940;DHT22;15275;51.716;14.324;2022-07-10T05:40:49;18.30;74.30
27940;DHT22;15275;51.716;14.324;2022-07-10T05:43:16;18.40;74.20
27940;DHT22;15275;51.716;14.324;2022-07-10T05:45:41;18.40;73.20
27940;DHT22;15275;51.716;14.324;2022-07-10T05:48:07;18.40;73.20
27940;DHT22;15275;51.716;14.324;2022-07-10T05:50:33;18.40;73.40
27940;DHT22;15275;51.716;14.324;2022-07-10T05:52:59;18.40;73.40
27940;DHT22;15275;51.716;14.324;2022-07-10T05:55:25;18.30;73.40
27940;DHT22;15275;51.716;14.324;2022-07-10T05:57:51;18.30;73.50
27940;DHT22;15275;51.716;14.324;2022-07-10T06:02:49;18.40;72.70
27940;DHT22;15275;51.716;14.324;2022-07-10T06:05:15;18.30;73.30
27940;DHT22;15275;51.716;14.324;2022-07-10T06:07:41;18.40;73.40
27940;DHT22;15275;51.716;14.324;2022-07-10T06:10:07;18.30;73.40
27940;DHT22;15275;51.716;14.324;2022-07-10T06:12:33;18.40;73.10
27940;DHT22;15275;51.716;14.324;2022-07-10T06:14:59;18.40;72.80
27940;DHT22;15275;51.716;14.324;2022-07-10T06:17:25;18.40;73.10
27940;DHT22;15275;51.716;14.324;2022-07-10T06:19:51;18.40;73.20
27940;DHT22;15275;51.716;14.324;2022-07-10T06:22:17;18.40;73.20
27940;DHT22;15275;51.716;14.324;2022-07-10T06:25:03;18.50;73.00
27940;DHT22;15275;51.716;14.324;2022-07-10T06:27:32;18.50;72.60
27940;DHT22;15275;51.716;14.324;2022-07-10T06:29:59;18.50;73.30
27940;DHT22;15275;51.716;14.324;2022-07-10T06:32:25;18.60;73.40
27940;DHT22;15275;51.716;14.324;2022-07-10T06:34:53;18.70;73.40
27940;DHT22;15275;51.716;14.324;2022-07-10T06:37:19;18.70;73.30
27940;DHT22;15275;51.716;14.324;2022-07-10T06:39:46;18.80;73.30
27940;DHT22;15275;51.716;14.324;2022-07-10T06:42:13;18.90;72.90
27940;DHT22;15275;51.716;14.324;2022-07-10T06:44:39;18.90;72.90
27940;DHT22;15275;51.716;14.324;2022-07-10T06:47:06;18.90;72.80
27940;DHT22;15275;51.716;14.324;2022-07-10T06:49:52;19.00;72.50
27940;DHT22;15275;51.716;14.324;2022-07-10T06:52:18;19.00;72.30
27940;DHT22;15275;51.716;14.324;2022-07-10T06:54:45;19.10;72.50
27940;DHT22;15275;51.716;14.324;2022-07-10T06:57:11;19.10;72.60
27940;DHT22;15275;51.716;14.324;2022-07-10T06:59:37;19.10;72.50
27940;DHT22;15275;51.716;14.324;2022-07-10T07:02:04;19.20;72.30
27940;DHT22;15275;51.716;14.324;2022-07-10T07:04:30;19.20;72.30
27940;DHT22;15275;51.716;14.324;2022-07-10T07:06:56;19.20;72.50
27940;DHT22;15275;51.716;14.324;2022-07-10T07:09:22;19.30;72.30
27940;DHT22;15275;51.716;14.324;2022-07-10T07:11:48;19.30;71.80
27940;DHT22;15275;51.716;14.324;2022-07-10T07:14:14;19.40;71.50
27940;DHT22;15275;51.716;14.324;2022-07-10T07:16:39;19.40;71.60
27940;DHT22;15275;51.716;14.324;2022-07-10T07:19:11;19.40;71.00
27940;DHT22;15275;51.716;14.324;2022-07-10T07:21:43;19.40;70.80
27940;DHT22;15275;51.716;14.324;2022-07-10T07:24:28;19.40;70.90
27940;DHT22;15275;51.716;14.324;2022-07-10T07:26:54;19.40;70.90
27940;DHT22;15275;51.716;14.324;2022-07-10T07:29:20;19.40;71.00
27940;DHT22;15275;51.716;14.324;2022-07-10T07:31:46;19.40;71.20
27940;DHT22;15275;51.716;14.324;2022-07-10T07:34:12;19.40;71.50
27940;DHT22;15275;51.716;14.324;2022-07-10T07:36:38;19.50;71.30
27940;DHT22;15275;51.716;14.324;2022-07-10T07:39:04;19.50;71.00
27940;DHT22;15275;51.716;14.324;2022-07-10T07:41:30;19.50;70.80
27940;DHT22;15275;51.716;14.324;2022-07-10T07:43:56;19.50;70.50
27940;DHT22;15275;51.716;14.324;2022-07-10T07:46:22;19.50;70.50
27940;DHT22;15275;51.716;14.324;2022-07-10T07:48:49;19.50;70.10
27940;DHT22;15275;51.716;14.324;2022-07-10T07:51:15;19.50;69.80
27940;DHT22;15275;51.716;14.324;2022-07-10T07:53:41;19.50;70.00
27940;DHT22;15275;51.716;14.324;2022-07-10T07:56:07;19.50;70.60
27940;DHT22;15275;51.716;14.324;2022-07-10T07:58:33;19.50;71.00
27940;DHT22;15275;51.716;14.324;2022-07-10T08:00:59;19.50;70.90
27940;DHT22;15275;51.716;14.324;2022-07-10T08:03:26;19.60;70.60
27940;DHT22;15275;51.716;14.324;2022-07-10T08:05:52;19.60;70.20
27940;DHT22;15275;51.716;14.324;2022-07-10T08:08:17;19.70;70.20
27940;DHT22;15275;51.716;14.324;2022-07-10T08:10:43;19.70;69.70
27940;DHT22;15275;51.716;14.324;2022-07-10T08:13:09;19.70;69.40
27940;DHT22;15275;51.716;14.324;2022-07-10T08:15:35;19.80;69.60
27940;DHT22;15275;51.716;14.324;2022-07-10T08:18:01;19.80;69.60
27940;DHT22;15275;51.716;14.324;2022-07-10T08:20:29;19.80;69.40
27940;DHT22;15275;51.716;14.324;2022-07-10T08:22:56;19.80;69.10
27940;DHT22;15275;51.716;14.324;2022-07-10T08:25:22;19.90;68.80
27940;DHT22;15275;51.716;14.324;2022-07-10T08:27:49;19.90;68.90
27940;DHT22;15275;51.716;14.324;2022-07-10T08:30:15;19.90;69.10
27940;DHT22;15275;51.716;14.324;2022-07-10T08:32:41;20.00;69.00
27940;DHT22;15275;51.716;14.324;2022-07-10T08:35:08;20.00;68.70
27940;DHT22;15275;51.716;14.324;2022-07-10T08:37:43;20.10;68.70
27940;DHT22;15275;51.716;14.324;2022-07-10T08:40:15;20.10;67.70
27940;DHT22;15275;51.716;14.324;2022-07-10T08:42:42;20.10;68.60
27940;DHT22;15275;51.716;14.324;2022-07-10T08:45:10;20.10;68.60
27940;DHT22;15275;51.716;14.324;2022-07-10T08:47:37;20.20;68.10
27940;DHT22;15275;51.716;14.324;2022-07-10T08:50:18;20.20;67.90
27940;DHT22;15275;51.716;14.324;2022-07-10T08:55:38;20.20;66.10
27940;DHT22;15275;51.716;14.324;2022-07-10T08:58:04;20.20;67.80
27940;DHT22;15275;51.716;14.324;2022-07-10T09:00:30;20.20;67.70
27940;DHT22;15275;51.716;14.324;2022-07-10T09:02:56;20.30;67.40
27940;DHT22;15275;51.716;14.324;2022-07-10T09:05:23;20.30;67.00
27940;DHT22;15275;51.716;14.324;2022-07-10T09:07:52;20.30;67.00
27940;DHT22;15275;51.716;14.324;2022-07-10T09:10:24;20.40;67.10
27940;DHT22;15275;51.716;14.324;2022-07-10T09:12:52;20.40;66.80
27940;DHT22;15275;51.716;14.324;2022-07-10T09:15:23;20.40;67.20
27940;DHT22;15275;51.716;14.324;2022-07-10T09:23:14;20.60;65.90
27940;DHT22;15275;51.716;14.324;2022-07-10T09:25:44;20.60;66.10
27940;DHT22;15275;51.716;14.324;2022-07-10T09:28:16;20.70;67.30
27940;DHT22;15275;51.716;14.324;2022-07-10T09:30:46;20.70;66.30
27940;DHT22;15275;51.716;14.324;2022-07-10T09:33:19;20.70;66.40
27940;DHT22;15275;51.716;14.324;2022-07-10T09:36:06;20.80;64.80
27940;DHT22;15275;51.716;14.324;2022-07-10T09:41:15;20.80;65.20
27940;DHT22;15275;51.716;14.324;2022-07-10T09:46:34;20.90;64.50
27940;DHT22;15275;51.716;14.324;2022-07-10T09:49:07;20.90;64.70
27940;DHT22;15275;51.716;14.324;2022-07-10T09:51:38;20.90;64.80
27940;DHT22;15275;51.716;14.324;2022-07-10T09:54:07;20.80;65.70
27940;DHT22;15275;51.716;14.324;2022-07-10T09:56:40;20.80;65.30
27940;DHT22;15275;51.716;14.324;2022-07-10T09:59:20;20.70;64.70
27940;DHT22;15275;51.716;14.324;2022-07-10T10:01:50;20.60;65.50
27940;DHT22;15275;51.716;14.324;2022-07-10T10:04:19;20.50;64.90
27940;DHT22;15275;51.716;14.324;2022-07-10T10:06:51;20.50;65.60
27940;DHT22;15275;51.716;14.324;2022-07-10T10:09:34;20.40;65.40
27940;DHT22;15275;51.716;14.324;2022-07-10T10:12:16;20.30;63.90
27940;DHT22;15275;51.716;14.324;2022-07-10T10:14:45;20.30;64.40
27940;DHT22;15275;51.716;14.324;2022-07-10T10:17:11;20.20;65.80
27940;DHT22;15275;51.716;14.324;2022-07-10T10:19:38;20.20;66.00
27940;DHT22;15275;51.716;14.324;2022-07-10T10:22:24;20.10;66.30
27940;DHT22;15275;51.716;14.324;2022-07-10T10:24:52;20.10;66.50
27940;DHT22;15275;51.716;14.324;2022-07-10T10:27:20;20.10;66.60
27940;DHT22;15275;51.716;14.324;2022-07-10T10:29:47;20.20;66.80
27940;DHT22;15275;51.716;14.324;2022-07-10T10:32:13;20.20;66.60
27940;DHT22;15275;51.716;14.324;2022-07-10T10:34:44;20.20;65.50
27940;DHT22;15275;51.716;14.324;2022-07-10T10:39:56;20.20;65.10
27940;DHT22;15275;51.716;14.324;2022-07-10T10:42:39;20.10;66.10
27940;DHT22;15275;51.716;14.324;2022-07-10T10:45:37;20.10;65.50
27940;DHT22;15275;51.716;14.324;2022-07-10T10:48:07;20.10;66.50
27940;DHT22;15275;51.716;14.324;2022-07-10T10:50:50;20.10;67.60
27940;DHT22;15275;51.716;14.324;2022-07-10T10:53:25;20.10;67.70
27940;DHT22;15275;51.716;14.324;2022-07-10T10:58:43;20.30;66.80
27940;DHT22;15275;51.716;14.324;2022-07-10T11:06:42;20.70;66.00
27940;DHT22;15275;51.716;14.324;2022-07-10T11:09:27;20.80;66.40
27940;DHT22;15275;51.716;14.324;2022-07-10T11:12:07;20.90;64.80
27940;DHT22;15275;51.716;14.324;2022-07-10T11:14:39;21.00;65.00
27940;DHT22;15275;51.716;14.324;2022-07-10T11:17:08;21.00;64.80
27940;DHT22;15275;51.716;14.324;2022-07-10T11:19:35;20.90;65.50
27940;DHT22;15275;51.716;14.324;2022-07-10T11:28:11;20.90;63.80
27940;DHT22;15275;51.716;14.324;2022-07-10T11:31:06;20.90;66.10
27940;DHT22;15275;51.716;14.324;2022-07-10T11:33:43;21.00;65.80
27940;DHT22;15275;51.716;14.324;2022-07-10T11:36:17;21.10;65.50
27940;DHT22;15275;51.716;14.324;2022-07-10T11:38:56;21.20;66.20
27940;DHT22;15275;51.716;14.324;2022-07-10T11:41:26;21.30;65.60
27940;DHT22;15275;51.716;14.324;2022-07-10T11:43:58;21.30;66.40
27940;DHT22;15275;51.716;14.324;2022-07-10T11:46:30;21.50;65.30
27940;DHT22;15275;51.716;14.324;2022-07-10T11:48:57;21.50;65.30
27940;DHT22;15275;51.716;14.324;2022-07-10T11:51:29;21.50;65.70
27940;DHT22;15275;51.716;14.324;2022-07-10T11:56:28;21.60;64.80
27940;DHT22;15275;51.716;14.324;2022-07-10T12:01:26;21.70;65.00
27940;DHT22;15275;51.716;14.324;2022-07-10T12:04:05;21.70;64.90
27940;DHT22;15275;51.716;14.324;2022-07-10T12:06:33;21.80;62.90
27940;DHT22;15275;51.716;14.324;2022-07-10T12:09:05;21.80;64.50
27940;DHT22;15275;51.716;14.324;2022-07-10T12:11:32;21.90;64.00
27940;DHT22;15275;51.716;14.324;2022-07-10T12:14:20;22.00;63.80
27940;DHT22;15275;51.716;14.324;2022-07-10T12:16:52;22.00;62.90
27940;DHT22;15275;51.716;14.324;2022-07-10T12:19:28;22.00;63.40
27940;DHT22;15275;51.716;14.324;2022-07-10T12:21:57;22.00;63.40
27940;DHT22;15275;51.716;14.324;2022-07-10T12:24:25;22.00;63.70
27940;DHT22;15275;51.716;14.324;2022-07-10T12:26:52;22.00;63.70
27940;DHT22;15275;51.716;14.324;2022-07-10T12:29:26;22.00;63.60
27940;DHT22;15275;51.716;14.324;2022-07-10T12:31:59;22.00;62.50
27940;DHT22;15275;51.716;14.324;2022-07-10T12:34:39;21.90;63.30
27940;DHT22;15275;51.716;14.324;2022-07-10T12:37:13;21.80;62.50
27940;DHT22;15275;51.716;14.324;2022-07-10T12:39:47;21.70;62.80
27940;DHT22;15275;51.716;14.324;2022-07-10T12:42:24;21.60;62.70
27940;DHT22;15275;51.716;14.324;2022-07-10T12:45:10;21.50;63.20
27940;DHT22;15275;51.716;14.324;2022-07-10T12:47:45;21.40;63.20
27940;DHT22;15275;51.716;14.324;2022-07-10T12:50:15;21.40;63.20
27940;DHT22;15275;51.716;14.324;2022-07-10T12:52:45;21.40;64.50
27940;DHT22;15275;51.716;14.324;2022-07-10T12:55:19;21.40;64.30
27940;DHT22;15275;51.716;14.324;2022-07-10T12:57:58;21.40;64.20
27940;DHT22;15275;51.716;14.324;2022-07-10T13:00:35;21.50;64.10
27940;DHT22;15275;51.716;14.324;2022-07-10T13:03:07;21.50;63.40
27940;DHT22;15275;51.716;14.324;2022-07-10T13:05:39;21.60;64.10
27940;DHT22;15275;51.716;14.324;2022-07-10T13:08:14;21.70;63.90
27940;DHT22;15275;51.716;14.324;2022-07-10T13:10:54;21.80;64.50
27940;DHT22;15275;51.716;14.324;2022-07-10T13:13:21;21.90;65.00
27940;DHT22;15275;51.716;14.324;2022-07-10T13:15:48;22.00;65.10
27940;DHT22;15275;51.716;14.324;2022-07-10T13:18:26;22.00;64.40
27940;DHT22;15275;51.716;14.324;2022-07-10T13:20:56;22.10;63.00
27940;DHT22;15275;51.716;14.324;2022-07-10T13:23:24;22.10;63.70
27940;DHT22;15275;51.716;14.324;2022-07-10T13:25:55;22.10;64.60
27940;DHT22;15275;51.716;14.324;2022-07-10T13:28:24;22.20;64.00
27940;DHT22;15275;51.716;14.324;2022-07-10T13:30:50;22.30;64.60
27940;DHT22;15275;51.716;14.324;2022-07-10T13:33:16;22.40;63.90
27940;DHT22;15275;51.716;14.324;2022-07-10T13:35:43;22.50;63.60
27940;DHT22;15275;51.716;14.324;2022-07-10T13:38:09;22.60;63.40
27940;DHT22;15275;51.716;14.324;2022-07-10T13:40:36;22.70;62.90
27940;DHT22;15275;51.716;14.324;2022-07-10T13:43:03;22.70;62.40
27940;DHT22;15275;51.716;14.324;2022-07-10T13:45:30;22.80;62.10
27940;DHT22;15275;51.716;14.324;2022-07-10T13:48:03;22.90;61.90
27940;DHT22;15275;51.716;14.324;2022-07-10T13:50:29;22.90;61.80
27940;DHT22;15275;51.716;14.324;2022-07-10T13:52:55;23.00;61.80
27940;DHT22;15275;51.716;14.324;2022-07-10T13:55:21;23.00;61.90
27940;DHT22;15275;51.716;14.324;2022-07-10T13:57:47;23.00;61.50
27940;DHT22;15275;51.716;14.324;2022-07-10T14:00:13;23.00;61.40
27940;DHT22;15275;51.716;14.324;2022-07-10T14:02:40;23.00;61.70
27940;DHT22;15275;51.716;14.324;2022-07-10T14:05:06;23.00;61.40
27940;DHT22;15275;51.716;14.324;2022-07-10T14:07:35;23.10;61.20
27940;DHT22;15275;51.716;14.324;2022-07-10T14:10:01;23.10;60.60
27940;DHT22;15275;51.716;14.324;2022-07-10T14:12:28;23.00;59.90
27940;DHT22;15275;51.716;14.324;2022-07-10T14:14:54;23.00;60.20
27940;DHT22;15275;51.716;14.324;2022-07-10T14:17:20;23.10;59.90
27940;DHT22;15275;51.716;14.324;2022-07-10T14:19:46;23.10;59.00
27940;DHT22;15275;51.716;14.324;2022-07-10T14:22:12;23.10;59.70
27940;DHT22;15275;51.716;14.324;2022-07-10T14:24:38;23.20;60.10
27940;DHT22;15275;51.716;14.324;2022-07-10T14:27:04;23.30;60.40
27940;DHT22;15275;51.716;14.324;2022-07-10T14:29:31;23.40;60.10
27940;DHT22;15275;51.716;14.324;2022-07-10T14:31:57;23.50;59.90
27940;DHT22;15275;51.716;14.324;2022-07-10T14:34:23;23.50;59.50
27940;DHT22;15275;51.716;14.324;2022-07-10T14:36:50;23.50;59.00
27940;DHT22;15275;51.716;14.324;2022-07-10T14:39:17;23.50;59.30
27940;DHT22;15275;51.716;14.324;2022-07-10T14:41:42;23.40;59.20
27940;DHT22;15275;51.716;14.324;2022-07-10T14:44:08;23.40;59.60
27940;DHT22;15275;51.716;14.324;2022-07-10T14:46:34;23.40;59.80
27940;DHT22;15275;51.716;14.324;2022-07-10T14:49:00;23.40;59.40
27940;DHT22;15275;51.716;14.324;2022-07-10T14:51:26;23.50;59.60
27940;DHT22;15275;51.716;14.324;2022-07-10T14:53:53;23.50;59.50
27940;DHT22;15275;51.716;14.324;2022-07-10T14:56:20;23.60;59.10
27940;DHT22;15275;51.716;14.324;2022-07-10T14:58:46;23.70;59.10
27940;DHT22;15275;51.716;14.324;2022-07-10T15:01:12;23.70;59.00
27940;DHT22;15275;51.716;14.324;2022-07-10T15:03:41;23.70;58.60
27940;DHT22;15275;51.716;14.324;2022-07-10T15:06:07;23.60;58.90
27940;DHT22;15275;51.716;14.324;2022-07-10T15:08:34;23.60;59.20
27940;DHT22;15275;51.716;14.324;2022-07-10T15:11:00;23.50;59.20
27940;DHT22;15275;51.716;14.324;2022-07-10T15:13:27;23.50;59.50
27940;DHT22;15275;51.716;14.324;2022-07-10T15:15:54;23.50;59.70
27940;DHT22;15275;51.716;14.324;2022-07-10T15:18:20;23.50;60.30
27940;DHT22;15275;51.716;14.324;2022-07-10T15:20:47;23.50;60.20
27940;DHT22;15275;51.716;14.324;2022-07-10T15:23:15;23.60;60.10
27940;DHT22;15275;51.716;14.324;2022-07-10T15:25:41;23.70;59.80
27940;DHT22;15275;51.716;14.324;2022-07-10T15:28:08;23.80;59.60
27940;DHT22;15275;51.716;14.324;2022-07-10T15:30:35;23.90;59.30
27940;DHT22;15275;51.716;14.324;2022-07-10T15:33:03;23.90;59.10
27940;DHT22;15275;51.716;14.324;2022-07-10T15:35:30;23.90;58.60
27940;DHT22;15275;51.716;14.324;2022-07-10T15:37:59;23.90;58.00
27940;DHT22;15275;51.716;14.324;2022-07-10T15:40:31;23.80;58.10
27940;DHT22;15275;51.716;14.324;2022-07-10T15:42:57;23.70;56.70
27940;DHT22;15275;51.716;14.324;2022-07-10T15:45:24;23.60;58.30
27940;DHT22;15275;51.716;14.324;2022-07-10T15:47:51;23.50;58.50
27940;DHT22;15275;51.716;14.324;2022-07-10T15:50:19;23.40;58.60
27940;DHT22;15275;51.716;14.324;2022-07-10T15:52:48;23.30;58.50
27940;DHT22;15275;51.716;14.324;2022-07-10T15:55:14;23.30;58.40
27940;DHT22;15275;51.716;14.324;2022-07-10T15:57:40;23.20;59.70
27940;DHT22;15275;51.716;14.324;2022-07-10T16:00:08;23.30;60.00